createdAt,value
2022-10-17T00:00:12.206Z,102566.21
2022-10-17T00:03:01.139Z,102568.88
2022-10-17T00:05:30.321Z,102573.36
2022-10-17T00:07:59.044Z,102572.09
2022-10-17T00:10:27.804Z,102568.33
2022-10-17T00:12:56.467Z,102569.86
2022-10-17T00:15:27.950Z,102570.81
2022-10-17T00:17:56.842Z,102571.45
2022-10-17T00:20:26.047Z,102573.00
2022-10-17T00:22:57.788Z,102574.39
2022-10-17T00:25:26.485Z,102575.55
2022-10-17T00:27:55.080Z,102572.35
2022-10-17T00:30:23.668Z,102574.94
2022-10-17T00:32:52.684Z,102576.16
2022-10-17T00:35:21.651Z,102581.86
2022-10-17T00:37:50.621Z,102583.79
2022-10-17T00:40:19.593Z,102587.02
2022-10-17T00:42:51.431Z,102584.41
2022-10-17T00:45:31.776Z,102582.91
2022-10-17T00:48:08.660Z,102584.41
2022-10-17T00:50:40.978Z,102578.46
2022-10-17T00:53:10.415Z,102574.80
2022-10-17T00:55:48.992Z,102575.98
2022-10-17T00:58:19.452Z,102573.77
2022-10-17T01:00:48.897Z,102579.29
2022-10-17T01:03:17.611Z,102577.64
2022-10-17T01:05:46.940Z,102574.42
2022-10-17T01:08:17.742Z,102576.59
2022-10-17T01:11:13.465Z,102575.08
2022-10-17T01:13:58.729Z,102576.52
2022-10-17T01:20:18.743Z,102575.50
2022-10-17T01:22:55.432Z,102580.45
2022-10-17T01:25:54.229Z,102581.52
2022-10-17T01:28:56.419Z,102577.59
2022-10-17T01:31:51.616Z,102576.43
2022-10-17T01:34:59.384Z,102575.00
2022-10-17T01:37:38.048Z,102576.30
2022-10-17T01:40:38.840Z,102580.42
2022-10-17T01:43:26.947Z,102575.82
2022-10-17T01:46:07.589Z,102569.95
2022-10-17T01:48:40.375Z,102571.17
2022-10-17T01:51:21.925Z,102569.27
2022-10-17T01:54:00.891Z,102570.24
2022-10-17T01:56:33.245Z,102572.40
2022-10-17T01:59:11.735Z,102570.36
2022-10-17T02:01:44.160Z,102573.50
2022-10-17T02:04:12.990Z,102579.67
2022-10-17T02:06:44.389Z,102576.87
2022-10-17T02:09:28.308Z,102585.78
2022-10-17T02:12:27.742Z,102585.96
2022-10-17T02:15:27.327Z,102594.63
2022-10-17T02:18:16.060Z,102603.58
2022-10-17T02:21:14.973Z,102605.91
2022-10-17T02:24:01.608Z,102608.50
2022-10-17T02:26:51.715Z,102614.32
2022-10-17T02:29:34.890Z,102612.88
2022-10-17T02:32:10.374Z,102614.21
2022-10-17T02:34:50.900Z,102617.18
2022-10-17T02:40:43.595Z,102610.93
2022-10-17T02:43:13.439Z,102613.55
2022-10-17T02:45:42.276Z,102618.09
2022-10-17T02:48:47.503Z,102621.54
2022-10-17T02:51:42.767Z,102623.60
2022-10-17T02:54:40.291Z,102622.83
2022-10-17T02:57:19.302Z,102620.67
2022-10-17T02:59:49.424Z,102619.15
2022-10-17T03:02:18.667Z,102618.86
2022-10-17T03:18:30.784Z,102617.92
2022-10-17T03:21:01.396Z,102619.08
2022-10-17T03:23:30.507Z,102621.64
2022-10-17T03:26:03.097Z,102623.21
2022-10-17T03:28:31.849Z,102629.33
2022-10-17T03:31:06.512Z,102631.75
2022-10-17T03:33:37.630Z,102639.24
2022-10-17T03:36:16.578Z,102640.20
2022-10-17T03:38:46.678Z,102646.72
2022-10-17T03:41:15.549Z,102650.07
2022-10-17T03:43:44.556Z,102651.85
2022-10-17T03:46:14.129Z,102651.08
2022-10-17T03:48:43.038Z,102648.88
2022-10-17T03:51:12.522Z,102648.57
2022-10-17T03:53:47.876Z,102652.27
2022-10-17T03:56:24.184Z,102656.64
2022-10-17T03:59:06.317Z,102655.58
2022-10-17T04:01:39.467Z,102654.27
2022-10-17T04:04:10.315Z,102651.31
2022-10-17T04:06:39.324Z,102650.47
2022-10-17T04:09:08.613Z,102652.90
2022-10-17T04:11:49.122Z,102652.38
2022-10-17T04:14:21.485Z,102650.15
2022-10-17T04:16:54.859Z,102654.23
2022-10-17T04:20:02.533Z,102653.31
2022-10-17T04:22:32.652Z,102649.56
2022-10-17T04:25:03.001Z,102646.65
2022-10-17T04:28:20.289Z,102638.75
2022-10-17T04:31:41.270Z,102646.85
2022-10-17T04:34:55.303Z,102648.36
2022-10-17T04:37:25.747Z,102649.84
2022-10-17T04:39:56.050Z,102652.56
2022-10-17T04:42:25.013Z,102659.87
2022-10-17T04:44:58.033Z,102663.95
2022-10-17T05:15:18.901Z,102702.78
2022-10-17T05:17:47.829Z,102707.81
2022-10-17T05:20:23.060Z,102706.64
2022-10-17T05:22:51.470Z,102704.87
2022-10-17T05:25:21.480Z,102705.27
2022-10-17T05:27:51.108Z,102706.11
2022-10-17T05:30:19.355Z,102706.82
2022-10-17T05:49:48.525Z,102716.13
2022-10-17T05:52:34.633Z,102718.62
2022-10-17T05:55:10.781Z,102720.36
2022-10-17T05:57:40.115Z,102721.98
2022-10-17T06:00:13.164Z,102723.23
2022-10-17T06:02:46.356Z,102720.40
2022-10-17T06:05:17.078Z,102723.47
2022-10-17T06:07:45.429Z,102728.73
2022-10-17T06:10:18.357Z,102729.00
2022-10-17T06:12:46.403Z,102727.73
2022-10-17T06:35:01.045Z,102732.52
2022-10-17T06:37:36.513Z,102738.20
2022-10-17T06:40:11.990Z,102740.33
2022-10-17T06:42:41.235Z,102741.95
2022-10-17T06:45:24.358Z,102744.56
2022-10-17T06:48:36.377Z,102738.25
2022-10-17T06:51:31.613Z,102752.34
2022-10-17T07:31:09.459Z,102762.00
2022-10-17T07:33:41.261Z,102766.13
2022-10-17T07:36:09.655Z,102770.92
2022-10-17T07:38:38.539Z,102764.72
2022-10-17T07:41:09.799Z,102768.48
2022-10-17T07:43:38.691Z,102762.08
2022-10-17T07:46:06.652Z,102759.73
2022-10-17T07:48:35.332Z,102762.98
2022-10-17T07:51:06.113Z,102761.52
2022-10-17T07:53:46.443Z,102762.16
2022-10-17T07:56:17.736Z,102765.48
2022-10-17T07:58:48.576Z,102766.70
2022-10-17T08:01:17.482Z,102765.04
2022-10-17T08:03:48.962Z,102762.30
2022-10-17T08:06:18.302Z,102756.16
2022-10-17T08:08:47.433Z,102753.41
2022-10-17T08:11:16.010Z,102752.41
2022-10-17T08:13:43.846Z,102754.08
2022-10-17T08:16:47.226Z,102752.91
2022-10-17T08:19:32.612Z,102754.25
2022-10-17T08:22:01.868Z,102755.75
2022-10-17T08:24:29.631Z,102753.48
2022-10-17T08:26:57.937Z,102753.91
2022-10-17T08:29:25.735Z,102745.02
2022-10-17T08:31:58.540Z,102747.20
2022-10-17T08:34:28.951Z,102750.64
2022-10-17T08:36:56.937Z,102748.90
2022-10-17T08:39:24.914Z,102751.62
2022-10-17T08:42:10.927Z,102753.96
2022-10-17T08:58:00.045Z,102749.56
2022-10-17T09:00:33.864Z,102754.69
2022-10-17T09:03:40.004Z,102756.64
2022-10-17T09:06:46.772Z,102754.81
2022-10-17T09:09:46.823Z,102753.67
2022-10-17T09:12:42.328Z,102756.10
2022-10-17T09:17:00.333Z,102761.08
2022-10-17T09:19:41.164Z,102745.08
2022-10-17T09:22:22.318Z,102755.92
2022-10-17T09:25:10.422Z,102747.42
2022-10-17T09:27:47.193Z,102746.27
2022-10-17T09:30:45.925Z,102733.14
2022-10-17T09:33:56.379Z,102745.20
2022-10-17T09:36:39.626Z,102750.50
2022-10-17T09:39:32.583Z,102749.89
2022-10-17T09:42:04.497Z,102742.31
2022-10-17T09:45:26.456Z,102737.05
2022-10-17T09:48:45.712Z,102740.23
2022-10-17T09:51:25.867Z,102733.16
2022-10-17T09:54:05.751Z,102732.17
2022-10-17T09:57:07.844Z,102733.38
2022-10-17T10:00:03.117Z,102728.45
2022-10-17T10:06:34.887Z,102724.20
2022-10-17T10:09:26.031Z,102721.34
2022-10-17T10:23:17.571Z,102707.64
2022-10-17T10:42:47.450Z,102683.52
2022-10-17T10:45:46.470Z,102675.17
2022-10-17T10:48:24.825Z,102676.03
2022-10-17T10:51:24.669Z,102666.97
2022-10-17T10:54:20.200Z,102663.27
2022-10-17T10:57:08.309Z,102666.64
2022-10-17T10:59:51.251Z,102666.56
2022-10-17T11:02:44.353Z,102668.50
2022-10-17T11:05:28.071Z,102666.17
2022-10-17T11:08:14.939Z,102664.66
2022-10-17T11:11:23.872Z,102667.47
2022-10-17T11:14:36.294Z,102666.67
2022-10-17T11:17:41.639Z,102667.18
2022-10-17T11:20:09.566Z,102666.42
2022-10-17T11:22:55.459Z,102672.36
2022-10-17T11:25:40.734Z,102665.33
2022-10-17T11:28:25.387Z,102675.54
2022-10-17T11:53:44.002Z,102661.03
2022-10-17T11:56:53.603Z,102659.50
2022-10-17T12:00:07.652Z,102655.17
2022-10-17T12:02:50.454Z,102652.66
2022-10-17T12:06:30.233Z,102651.44
2022-10-17T12:09:32.049Z,102649.95
2022-10-17T12:12:04.347Z,102649.21
2022-10-17T12:14:46.473Z,102646.05
